sensor_id;sensor_type;location;lat;lon;timestamp;noise_LAeq;noise_LA_min;noise_LA_max;noise_LA01;noise_LA95
67324;Laerm;57667;51.438;5.968;2024-01-16T00:00:06;35.47;33.86;39.04;;
67324;Laerm;57667;51.438;5.968;2024-01-16T00:00:17;35.81;32.03;43.74;;
67324;Laerm;57667;51.438;5.968;2024-01-16T00:00:27;32.72;31.33;34.51;;
67324;Laerm;57667;51.438;5.968;2024-01-16T00:00:38;33.95;31.45;43.04;;
67324;Laerm;57667;51.438;5.968;2024-01-16T00:00:48;32.72;30.92;38.38;;
67324;Laerm;57667;51.438;5.968;2024-01-16T00:00:58;33.70;31.90;38.41;;
67324;Laerm;57667;51.438;5.968;2024-01-16T00:01:09;37.50;32.59;47.88;;
67324;Laerm;57667;51.438;5.968;2024-01-16T00:01:21;34.71;32.44;42.46;;
67324;Laerm;57667;51.438;5.968;2024-01-16T00:01:31;32.46;31.14;34.80;;
67324;Laerm;57667;51.438;5.968;2024-01-16T00:01:42;35.60;31.28;44.37;;
67324;Laerm;57667;51.438;5.968;2024-01-16T00:01:53;31.90;30.30;34.72;;
67324;Laerm;57667;51.438;5.968;2024-01-16T00:02:04;31.63;30.49;33.79;;
67324;Laerm;57667;51.438;5.968;2024-01-16T00:02:14;33.50;31.22;41.03;;
67324;Laerm;57667;51.438;5.968;2024-01-16T00:02:24;32.89;31.00;36.64;;
67324;Laerm;57667;51.438;5.968;2024-01-16T00:02:35;34.61;30.85;45.29;;
67324;Laerm;57667;51.438;5.968;2024-01-16T00:02:45;34.48;31.04;42.07;;
67324;Laerm;57667;51.438;5.968;2024-01-16T00:02:55;32.66;30.32;41.88;;
67324;Laerm;57667;51.438;5.968;2024-01-16T00:03:05;31.90;30.39;33.13;;
67324;Laerm;57667;51.438;5.968;2024-01-16T00:03:16;31.93;30.39;34.06;;
67324;Laerm;57667;51.438;5.968;2024-01-16T00:03:26;31.47;30.13;32.72;;
67324;Laerm;57667;51.438;5.968;2024-01-16T00:03:37;31.38;30.16;33.91;;
67324;Laerm;57667;51.438;5.968;2024-01-16T00:03:47;31.90;30.44;38.90;;
67324;Laerm;57667;51.438;5.968;2024-01-16T00:03:58;32.02;30.40;37.12;;
67324;Laerm;57667;51.438;5.968;2024-01-16T00:04:08;31.81;29.99;35.72;;
67324;Laerm;57667;51.438;5.968;2024-01-16T00:04:19;31.71;30.41;35.37;;
67324;Laerm;57667;51.438;5.968;2024-01-16T00:04:29;31.46;30.17;34.70;;
67324;Laerm;57667;51.438;5.968;2024-01-16T00:04:41;31.79;30.49;33.59;;
67324;Laerm;57667;51.438;5.968;2024-01-16T00:04:51;31.72;30.50;38.90;;
67324;Laerm;57667;51.438;5.968;2024-01-16T00:05:01;33.75;30.47;41.77;;
67324;Laerm;57667;51.438;5.968;2024-01-16T00:05:13;33.68;31.09;36.19;;
67324;Laerm;57667;51.438;5.968;2024-01-16T00:05:23;39.46;33.25;44.00;;
67324;Laerm;57667;51.438;5.968;2024-01-16T00:05:33;54.05;39.46;60.54;;
67324;Laerm;57667;51.438;5.968;2024-01-16T00:05:44;53.72;41.42;59.61;;
67324;Laerm;57667;51.438;5.968;2024-01-16T00:05:54;41.15;34.07;46.85;;
67324;Laerm;57667;51.438;5.968;2024-01-16T00:06:04;37.30;34.51;40.43;;
67324;Laerm;57667;51.438;5.968;2024-01-16T00:06:16;35.43;32.13;41.46;;
67324;Laerm;57667;51.438;5.968;2024-01-16T00:06:27;33.42;30.90;37.95;;
67324;Laerm;57667;51.438;5.968;2024-01-16T00:06:40;32.47;30.67;35.32;;
67324;Laerm;57667;51.438;5.968;2024-01-16T00:06:51;32.91;31.04;35.71;;
67324;Laerm;57667;51.438;5.968;2024-01-16T00:07:01;34.18;31.19;43.75;;
67324;Laerm;57667;51.438;5.968;2024-01-16T00:07:11;37.04;32.36;46.00;;
67324;Laerm;57667;51.438;5.968;2024-01-16T00:07:22;36.39;32.95;40.49;;
67324;Laerm;57667;51.438;5.968;2024-01-16T00:07:32;39.98;33.80;52.28;;
67324;Laerm;57667;51.438;5.968;2024-01-16T00:07:44;35.57;32.05;41.77;;
67324;Laerm;57667;51.438;5.968;2024-01-16T00:07:55;32.01;30.50;34.29;;
67324;Laerm;57667;51.438;5.968;2024-01-16T00:08:05;32.04;30.60;34.58;;
67324;Laerm;57667;51.438;5.968;2024-01-16T00:08:15;32.50;30.18;38.94;;
67324;Laerm;57667;51.438;5.968;2024-01-16T00:08:25;31.47;30.07;39.11;;
67324;Laerm;57667;51.438;5.968;2024-01-16T00:08:36;31.11;30.03;32.69;;
67324;Laerm;57667;51.438;5.968;2024-01-16T00:08:46;31.53;30.28;33.86;;
67324;Laerm;57667;51.438;5.968;2024-01-16T00:08:56;31.49;30.36;33.47;;
67324;Laerm;57667;51.438;5.968;2024-01-16T00:09:07;33.07;30.83;38.53;;
67324;Laerm;57667;51.438;5.968;2024-01-16T00:09:17;33.44;31.29;37.07;;
67324;Laerm;57667;51.438;5.968;2024-01-16T00:09:28;31.71;30.37;33.86;;
67324;Laerm;57667;51.438;5.968;2024-01-16T00:09:38;31.76;30.26;33.34;;
67324;Laerm;57667;51.438;5.968;2024-01-16T00:09:48;31.88;30.57;33.40;;
67324;Laerm;57667;51.438;5.968;2024-01-16T00:10:02;31.75;30.46;35.64;;
67324;Laerm;57667;51.438;5.968;2024-01-16T00:10:13;31.33;30.24;32.30;;
67324;Laerm;57667;51.438;5.968;2024-01-16T00:10:23;31.55;30.28;32.99;;
67324;Laerm;57667;51.438;5.968;2024-01-16T00:10:33;31.80;30.51;33.89;;
67324;Laerm;57667;51.438;5.968;2024-01-16T00:10:44;31.39;30.22;32.47;;
67324;Laerm;57667;51.438;5.968;2024-01-16T00:10:54;31.39;29.95;32.33;;
67324;Laerm;57667;51.438;5.968;2024-01-16T00:11:04;31.35;30.38;32.70;;
67324;Laerm;57667;51.438;5.968;2024-01-16T00:11:15;31.45;30.15;32.75;;
67324;Laerm;57667;51.438;5.968;2024-01-16T00:11:25;31.35;30.27;32.38;;
67324;Laerm;57667;51.438;5.968;2024-01-16T00:11:42;31.49;30.45;32.44;;
67324;Laerm;57667;51.438;5.968;2024-01-16T00:11:52;31.93;30.61;33.76;;
67324;Laerm;57667;51.438;5.968;2024-01-16T00:12:02;32.89;31.11;40.15;;
67324;Laerm;57667;51.438;5.968;2024-01-16T00:12:14;33.17;29.88;40.60;;
67324;Laerm;57667;51.438;5.968;2024-01-16T00:12:24;31.39;29.82;35.62;;
67324;Laerm;57667;51.438;5.968;2024-01-16T00:12:34;31.71;29.98;36.51;;
67324;Laerm;57667;51.438;5.968;2024-01-16T00:12:45;32.22;30.61;36.91;;
67324;Laerm;57667;51.438;5.968;2024-01-16T00:12:55;32.24;31.30;33.75;;
67324;Laerm;57667;51.438;5.968;2024-01-16T00:13:05;34.06;30.92;40.41;;
67324;Laerm;57667;51.438;5.968;2024-01-16T00:13:16;35.00;30.78;46.22;;
67324;Laerm;57667;51.438;5.968;2024-01-16T00:13:27;37.42;30.83;52.64;;
67324;Laerm;57667;51.438;5.968;2024-01-16T00:13:37;34.13;30.34;43.56;;
67324;Laerm;57667;51.438;5.968;2024-01-16T00:13:47;31.64;30.08;36.61;;
67324;Laerm;57667;51.438;5.968;2024-01-16T00:13:58;31.55;30.28;34.45;;
67324;Laerm;57667;51.438;5.968;2024-01-16T00:14:09;32.17;30.76;38.43;;
67324;Laerm;57667;51.438;5.968;2024-01-16T00:14:20;32.74;30.38;46.03;;
67324;Laerm;57667;51.438;5.968;2024-01-16T00:14:30;33.26;30.74;41.32;;
67324;Laerm;57667;51.438;5.968;2024-01-16T00:14:40;32.23;30.72;39.30;;
67324;Laerm;57667;51.438;5.968;2024-01-16T00:14:50;31.91;30.23;36.40;;
67324;Laerm;57667;51.438;5.968;2024-01-16T00:15:01;32.61;30.59;39.40;;
67324;Laerm;57667;51.438;5.968;2024-01-16T00:15:11;32.37;30.86;36.14;;
67324;Laerm;57667;51.438;5.968;2024-01-16T00:15:21;32.40;30.18;37.21;;
67324;Laerm;57667;51.438;5.968;2024-01-16T00:15:32;31.75;30.37;36.83;;
67324;Laerm;57667;51.438;5.968;2024-01-16T00:15:42;31.50;30.36;33.27;;
67324;Laerm;57667;51.438;5.968;2024-01-16T00:15:53;32.36;30.68;40.01;;
67324;Laerm;57667;51.438;5.968;2024-01-16T00:16:03;33.36;30.58;44.70;;
67324;Laerm;57667;51.438;5.968;2024-01-16T00:16:14;33.37;30.42;44.41;;
67324;Laerm;57667;51.438;5.968;2024-01-16T00:16:24;31.41;30.31;32.93;;
67324;Laerm;57667;51.438;5.968;2024-01-16T00:16:41;32.20;30.74;36.75;;
67324;Laerm;57667;51.438;5.968;2024-01-16T00:16:51;34.25;30.98;43.08;;
67324;Laerm;57667;51.438;5.968;2024-01-16T00:17:02;32.14;30.67;34.84;;
67324;Laerm;57667;51.438;5.968;2024-01-16T00:17:12;33.00;31.00;39.34;;
67324;Laerm;57667;51.438;5.968;2024-01-16T00:17:22;38.62;32.37;46.61;;
67324;Laerm;57667;51.438;5.968;2024-01-16T00:17:33;40.50;33.65;51.25;;
67324;Laerm;57667;51.438;5.968;2024-01-16T00:17:43;40.25;32.78;51.76;;
67324;Laerm;57667;51.438;5.968;2024-01-16T00:17:53;32.81;30.69;37.20;;
67324;Laerm;57667;51.438;5.968;2024-01-16T00:18:04;32.55;30.08;40.50;;
67324;Laerm;57667;51.438;5.968;2024-01-16T00:18:14;33.39;30.21;42.14;;
67324;Laerm;57667;51.438;5.968;2024-01-16T00:18:24;35.81;30.27;47.42;;
67324;Laerm;57667;51.438;5.968;2024-01-16T00:18:34;32.82;30.21;43.21;;
67324;Laerm;57667;51.438;5.968;2024-01-16T00:18:45;35.23;30.60;46.83;;
67324;Laerm;57667;51.438;5.968;2024-01-16T00:18:55;31.83;30.36;38.87;;
67324;Laerm;57667;51.438;5.968;2024-01-16T00:19:05;31.42;30.06;33.60;;
67324;Laerm;57667;51.438;5.968;2024-01-16T00:19:16;33.55;30.13;41.98;;
67324;Laerm;57667;51.438;5.968;2024-01-16T00:19:26;34.98;31.99;41.49;;
67324;Laerm;57667;51.438;5.968;2024-01-16T00:19:37;36.17;32.96;43.98;;
67324;Laerm;57667;51.438;5.968;2024-01-16T00:19:47;36.10;32.15;45.19;;
67324;Laerm;57667;51.438;5.968;2024-01-16T00:19:57;34.39;32.59;39.92;;
67324;Laerm;57667;51.438;5.968;2024-01-16T00:20:10;33.44;31.24;39.94;;
67324;Laerm;57667;51.438;5.968;2024-01-16T00:20:21;33.32;30.63;38.47;;
67324;Laerm;57667;51.438;5.968;2024-01-16T00:20:33;34.36;30.66;40.20;;
67324;Laerm;57667;51.438;5.968;2024-01-16T00:20:44;33.77;30.78;42.78;;
67324;Laerm;57667;51.438;5.968;2024-01-16T00:20:54;32.16;30.46;36.14;;
67324;Laerm;57667;51.438;5.968;2024-01-16T00:21:04;32.22;30.66;34.56;;
67324;Laerm;57667;51.438;5.968;2024-01-16T00:21:15;32.67;31.03;35.08;;
67324;Laerm;57667;51.438;5.968;2024-01-16T00:21:25;32.80;30.76;37.04;;
67324;Laerm;57667;51.438;5.968;2024-01-16T00:21:43;33.32;31.45;38.39;;
67324;Laerm;57667;51.438;5.968;2024-01-16T00:21:56;35.60;30.65;49.34;;
67324;Laerm;57667;51.438;5.968;2024-01-16T00:22:06;31.63;30.45;33.56;;
67324;Laerm;57667;51.438;5.968;2024-01-16T00:22:17;34.68;32.15;37.54;;
67324;Laerm;57667;51.438;5.968;2024-01-16T00:22:27;34.09;31.88;37.92;;
67324;Laerm;57667;51.438;5.968;2024-01-16T00:22:38;38.85;34.25;44.17;;
67324;Laerm;57667;51.438;5.968;2024-01-16T00:22:48;37.80;32.27;46.95;;
67324;Laerm;57667;51.438;5.968;2024-01-16T00:22:59;33.99;31.18;39.16;;
67324;Laerm;57667;51.438;5.968;2024-01-16T00:23:09;33.76;31.66;37.27;;
67324;Laerm;57667;51.438;5.968;2024-01-16T00:23:20;34.73;31.81;40.93;;
67324;Laerm;57667;51.438;5.968;2024-01-16T00:23:30;35.03;31.57;44.01;;
67324;Laerm;57667;51.438;5.968;2024-01-16T00:23:42;32.76;30.88;37.16;;
67324;Laerm;57667;51.438;5.968;2024-01-16T00:23:52;32.71;30.66;36.33;;
67324;Laerm;57667;51.438;5.968;2024-01-16T00:24:03;31.73;30.06;34.39;;
67324;Laerm;57667;51.438;5.968;2024-01-16T00:24:13;33.91;30.36;46.03;;
67324;Laerm;57667;51.438;5.968;2024-01-16T00:24:24;33.66;30.65;41.58;;
67324;Laerm;57667;51.438;5.968;2024-01-16T00:24:34;33.21;31.18;39.85;;
67324;Laerm;57667;51.438;5.968;2024-01-16T00:24:44;32.33;30.55;37.31;;
67324;Laerm;57667;51.438;5.968;2024-01-16T00:24:55;32.76;30.77;39.20;;
67324;Laerm;57667;51.438;5.968;2024-01-16T00:25:05;34.27;30.99;42.72;;
67324;Laerm;57667;51.438;5.968;2024-01-16T00:25:16;32.49;30.92;35.63;;
67324;Laerm;57667;51.438;5.968;2024-01-16T00:25:29;34.21;30.99;43.17;;
67324;Laerm;57667;51.438;5.968;2024-01-16T00:25:40;33.69;31.64;37.30;;
67324;Laerm;57667;51.438;5.968;2024-01-16T00:25:51;32.59;31.32;34.70;;
67324;Laerm;57667;51.438;5.968;2024-01-16T00:26:01;32.70;30.87;36.93;;
67324;Laerm;57667;51.438;5.968;2024-01-16T00:26:21;34.80;31.43;42.66;;
67324;Laerm;57667;51.438;5.968;2024-01-16T00:26:32;35.85;32.81;39.18;;
67324;Laerm;57667;51.438;5.968;2024-01-16T00:26:42;40.93;36.58;46.50;;
67324;Laerm;57667;51.438;5.968;2024-01-16T00:26:53;70.97;44.03;81.08;;
67324;Laerm;57667;51.438;5.968;2024-01-16T00:27:03;73.47;69.38;76.17;;
67324;Laerm;57667;51.438;5.968;2024-01-16T00:27:13;70.78;50.80;78.04;;
67324;Laerm;57667;51.438;5.968;2024-01-16T00:27:24;45.59;39.47;52.13;;
67324;Laerm;57667;51.438;5.968;2024-01-16T00:27:34;38.34;33.74;44.99;;
67324;Laerm;57667;51.438;5.968;2024-01-16T00:27:44;33.94;31.70;42.73;;
67324;Laerm;57667;51.438;5.968;2024-01-16T00:27:55;33.07;31.39;34.24;;
67324;Laerm;57667;51.438;5.968;2024-01-16T00:28:05;32.48;31.26;36.25;;
67324;Laerm;57667;51.438;5.968;2024-01-16T00:28:16;40.03;30.79;53.43;;
67324;Laerm;57667;51.438;5.968;2024-01-16T00:28:30;34.06;30.98;43.64;;
67324;Laerm;57667;51.438;5.968;2024-01-16T00:28:42;31.88;30.80;33.45;;
67324;Laerm;57667;51.438;5.968;2024-01-16T00:28:53;32.29;30.58;33.75;;
67324;Laerm;57667;51.438;5.968;2024-01-16T00:29:03;35.23;32.52;44.18;;
67324;Laerm;57667;51.438;5.968;2024-01-16T00:29:13;36.66;32.59;47.72;;
67324;Laerm;57667;51.438;5.968;2024-01-16T00:29:23;35.34;32.67;41.47;;
67324;Laerm;57667;51.438;5.968;2024-01-16T00:29:35;43.67;34.36;56.30;;
67324;Laerm;57667;51.438;5.968;2024-01-16T00:29:45;40.93;33.02;50.31;;
67324;Laerm;57667;51.438;5.968;2024-01-16T00:29:55;34.16;32.62;38.41;;
67324;Laerm;57667;51.438;5.968;2024-01-16T00:30:06;33.20;31.56;36.19;;
67324;Laerm;57667;51.438;5.968;2024-01-16T00:30:16;35.58;32.69;44.45;;
67324;Laerm;57667;51.438;5.968;2024-01-16T00:30:27;36.57;32.51;44.17;;
67324;Laerm;57667;51.438;5.968;2024-01-16T00:30:37;35.35;32.18;41.53;;
67324;Laerm;57667;51.438;5.968;2024-01-16T00:30:48;39.46;32.95;53.55;;
67324;Laerm;57667;51.438;5.968;2024-01-16T00:30:58;37.95;33.68;45.90;;
67324;Laerm;57667;51.438;5.968;2024-01-16T00:31:08;41.36;34.59;53.58;;
67324;Laerm;57667;51.438;5.968;2024-01-16T00:31:19;35.59;32.74;45.61;;
67324;Laerm;57667;51.438;5.968;2024-01-16T00:31:29;33.55;31.13;40.54;;
67324;Laerm;57667;51.438;5.968;2024-01-16T00:31:39;34.04;31.58;39.34;;
67324;Laerm;57667;51.438;5.968;2024-01-16T00:31:50;43.01;33.96;54.23;;
67324;Laerm;57667;51.438;5.968;2024-01-16T00:32:00;42.47;34.39;54.03;;
67324;Laerm;57667;51.438;5.968;2024-01-16T00:32:10;39.78;34.60;49.89;;
67324;Laerm;57667;51.438;5.968;2024-01-16T00:32:21;39.95;34.95;49.05;;
67324;Laerm;57667;51.438;5.968;2024-01-16T00:32:31;37.74;33.61;44.66;;
67324;Laerm;57667;51.438;5.968;2024-01-16T00:32:41;33.38;31.75;35.09;;
67324;Laerm;57667;51.438;5.968;2024-01-16T00:32:52;35.52;32.48;41.94;;
67324;Laerm;57667;51.438;5.968;2024-01-16T00:33:02;41.59;35.04;50.52;;
67324;Laerm;57667;51.438;5.968;2024-01-16T00:33:12;39.84;33.05;48.77;;
67324;Laerm;57667;51.438;5.968;2024-01-16T00:33:23;34.59;31.83;43.03;;
67324;Laerm;57667;51.438;5.968;2024-01-16T00:33:34;33.27;31.83;36.41;;
67324;Laerm;57667;51.438;5.968;2024-01-16T00:33:44;32.66;31.30;34.17;;
67324;Laerm;57667;51.438;5.968;2024-01-16T00:33:54;33.09;31.54;34.59;;
67324;Laerm;57667;51.438;5.968;2024-01-16T00:34:04;34.11;31.53;36.88;;
67324;Laerm;57667;51.438;5.968;2024-01-16T00:34:15;37.27;35.00;39.67;;
67324;Laerm;57667;51.438;5.968;2024-01-16T00:34:25;40.67;37.47;47.57;;
67324;Laerm;57667;51.438;5.968;2024-01-16T00:34:35;68.94;40.85;77.93;;
67324;Laerm;57667;51.438;5.968;2024-01-16T00:34:46;74.21;71.77;77.69;;
67324;Laerm;57667;51.438;5.968;2024-01-16T00:34:56;73.46;70.38;76.45;;
67324;Laerm;57667;51.438;5.968;2024-01-16T00:35:06;67.18;47.74;73.80;;
67324;Laerm;57667;51.438;5.968;2024-01-16T00:35:17;43.65;37.79;49.54;;
67324;Laerm;57667;51.438;5.968;2024-01-16T00:35:27;36.49;33.67;44.48;;
67324;Laerm;57667;51.438;5.968;2024-01-16T00:35:38;34.73;32.81;36.47;;
67324;Laerm;57667;51.438;5.968;2024-01-16T00:35:48;33.94;32.45;36.15;;
67324;Laerm;57667;51.438;5.968;2024-01-16T00:35:58;33.91;32.42;36.76;;
67324;Laerm;57667;51.438;5.968;2024-01-16T00:36:09;33.09;31.63;34.61;;
67324;Laerm;57667;51.438;5.968;2024-01-16T00:36:19;33.68;32.21;34.98;;
67324;Laerm;57667;51.438;5.968;2024-01-16T00:36:30;33.72;32.21;36.20;;
67324;Laerm;57667;51.438;5.968;2024-01-16T00:36:40;35.55;32.90;42.15;;
67324;Laerm;57667;51.438;5.968;2024-01-16T00:36:51;38.57;33.53;46.32;;
67324;Laerm;57667;51.438;5.968;2024-01-16T00:37:01;41.22;33.66;52.79;;
67324;Laerm;57667;51.438;5.968;2024-01-16T00:37:11;41.16;35.47;51.37;;
67324;Laerm;57667;51.438;5.968;2024-01-16T00:37:22;48.35;39.65;63.61;;
67324;Laerm;57667;51.438;5.968;2024-01-16T00:37:32;43.45;36.73;50.62;;
67324;Laerm;57667;51.438;5.968;2024-01-16T00:37:42;35.81;33.28;38.07;;
67324;Laerm;57667;51.438;5.968;2024-01-16T00:37:53;35.91;33.93;37.83;;
67324;Laerm;57667;51.438;5.968;2024-01-16T00:38:03;33.95;31.74;37.38;;
67324;Laerm;57667;51.438;5.968;2024-01-16T00:38:13;32.22;31.16;33.66;;
67324;Laerm;57667;51.438;5.968;2024-01-16T00:38:24;32.34;30.91;33.80;;
67324;Laerm;57667;51.438;5.968;2024-01-16T00:38:34;33.75;31.43;35.66;;
67324;Laerm;57667;51.438;5.968;2024-01-16T00:38:44;35.00;31.31;45.28;;
67324;Laerm;57667;51.438;5.968;2024-01-16T00:38:56;35.33;32.16;38.77;;
67324;Laerm;57667;51.438;5.968;2024-01-16T00:39:06;38.60;36.44;42.54;;
67324;Laerm;57667;51.438;5.968;2024-01-16T00:39:18;38.38;35.55;40.85;;
67324;Laerm;57667;51.438;5.968;2024-01-16T00:39:28;46.91;35.72;59.28;;
67324;Laerm;57667;51.438;5.968;2024-01-16T00:39:38;40.72;34.48;52.23;;
67324;Laerm;57667;51.438;5.968;2024-01-16T00:39:49;41.19;32.49;52.86;;
67324;Laerm;57667;51.438;5.968;2024-01-16T00:39:59;43.77;35.20;52.87;;
67324;Laerm;57667;51.438;5.968;2024-01-16T00:40:09;38.70;33.06;47.24;;
67324;Laerm;57667;51.438;5.968;2024-01-16T00:40:20;37.64;32.86;48.98;;
67324;Laerm;57667;51.438;5.968;2024-01-16T00:40:30;36.24;32.92;46.82;;
67324;Laerm;57667;51.438;5.968;2024-01-16T00:40:40;40.38;33.70;51.18;;
67324;Laerm;57667;51.438;5.968;2024-01-16T00:40:51;36.44;33.12;47.25;;
67324;Laerm;57667;51.438;5.968;2024-01-16T00:41:01;37.66;35.09;41.11;;
67324;Laerm;57667;51.438;5.968;2024-01-16T00:41:14;38.22;36.28;40.77;;
67324;Laerm;57667;51.438;5.968;2024-01-16T00:41:25;63.44;36.74;74.58;;
67324;Laerm;57667;51.438;5.968;2024-01-16T00:41:35;70.01;67.11;73.62;;
67324;Laerm;57667;51.438;5.968;2024-01-16T00:41:45;70.54;68.17;73.29;;
67324;Laerm;57667;51.438;5.968;2024-01-16T00:41:56;61.37;51.75;70.71;;
67324;Laerm;57667;51.438;5.968;2024-01-16T00:42:06;77.14;55.90;84.12;;
67324;Laerm;57667;51.438;5.968;2024-01-16T00:42:16;77.61;74.12;82.18;;
67324;Laerm;57667;51.438;5.968;2024-01-16T00:42:26;76.17;61.46;79.86;;
67324;Laerm;57667;51.438;5.968;2024-01-16T00:42:37;53.09;45.19;62.54;;
67324;Laerm;57667;51.438;5.968;2024-01-16T00:42:47;43.61;39.96;47.81;;
67324;Laerm;57667;51.438;5.968;2024-01-16T00:42:57;40.17;35.82;46.27;;
67324;Laerm;57667;51.438;5.968;2024-01-16T00:43:08;36.52;34.22;38.68;;
67324;Laerm;57667;51.438;5.968;2024-01-16T00:43:18;36.19;34.44;37.85;;
67324;Laerm;57667;51.438;5.968;2024-01-16T00:43:29;34.59;32.29;36.86;;
67324;Laerm;57667;51.438;5.968;2024-01-16T00:43:39;33.79;32.53;35.24;;
67324;Laerm;57667;51.438;5.968;2024-01-16T00:43:49;33.31;31.72;34.70;;
67324;Laerm;57667;51.438;5.968;2024-01-16T00:44:00;33.56;32.07;34.92;;
67324;Laerm;57667;51.438;5.968;2024-01-16T00:44:10;34.14;32.69;36.23;;
67324;Laerm;57667;51.438;5.968;2024-01-16T00:44:20;36.04;34.02;41.81;;
67324;Laerm;57667;51.438;5.968;2024-01-16T00:44:31;36.40;34.54;39.83;;
67324;Laerm;57667;51.438;5.968;2024-01-16T00:44:41;37.63;35.16;39.28;;
67324;Laerm;57667;51.438;5.968;2024-01-16T00:44:52;36.93;34.96;41.96;;
67324;Laerm;57667;51.438;5.968;2024-01-16T00:45:02;47.19;37.21;58.72;;
67324;Laerm;57667;51.438;5.968;2024-01-16T00:45:12;41.59;32.39;54.59;;
67324;Laerm;57667;51.438;5.968;2024-01-16T00:45:23;33.91;32.34;36.62;;
67324;Laerm;57667;51.438;5.968;2024-01-16T00:45:33;33.94;31.94;40.51;;
67324;Laerm;57667;51.438;5.968;2024-01-16T00:45:43;33.03;31.26;36.25;;
67324;Laerm;57667;51.438;5.968;2024-01-16T00:45:55;35.91;31.21;46.79;;
67324;Laerm;57667;51.438;5.968;2024-01-16T00:46:05;34.96;32.67;38.40;;
67324;Laerm;57667;51.438;5.968;2024-01-16T00:46:15;33.98;31.88;37.20;;
67324;Laerm;57667;51.438;5.968;2024-01-16T00:46:26;34.20;32.62;37.29;;
67324;Laerm;57667;51.438;5.968;2024-01-16T00:46:36;34.26;31.88;40.90;;
67324;Laerm;57667;51.438;5.968;2024-01-16T00:46:46;35.98;32.13;42.14;;
67324;Laerm;57667;51.438;5.968;2024-01-16T00:46:57;40.38;34.27;49.63;;
67324;Laerm;57667;51.438;5.968;2024-01-16T00:47:07;32.98;31.62;41.27;;
67324;Laerm;57667;51.438;5.968;2024-01-16T00:47:17;37.85;31.45;48.13;;
67324;Laerm;57667;51.438;5.968;2024-01-16T00:47:28;34.61;32.38;40.58;;
67324;Laerm;57667;51.438;5.968;2024-01-16T00:47:38;32.71;31.37;34.72;;
67324;Laerm;57667;51.438;5.968;2024-01-16T00:47:48;33.61;31.75;37.19;;
67324;Laerm;57667;51.438;5.968;2024-01-16T00:47:59;33.83;31.05;39.09;;
67324;Laerm;57667;51.438;5.968;2024-01-16T00:48:09;31.78;30.51;32.90;;
67324;Laerm;57667;51.438;5.968;2024-01-16T00:48:23;32.58;31.01;36.18;;
67324;Laerm;57667;51.438;5.968;2024-01-16T00:48:33;33.01;31.44;35.03;;
67324;Laerm;57667;51.438;5.968;2024-01-16T00:48:44;33.56;31.23;37.02;;
67324;Laerm;57667;51.438;5.968;2024-01-16T00:48:54;34.37;31.54;37.86;;
67324;Laerm;57667;51.438;5.968;2024-01-16T00:49:04;36.18;33.15;41.89;;
67324;Laerm;57667;51.438;5.968;2024-01-16T00:49:15;39.09;32.80;53.02;;
67324;Laerm;57667;51.438;5.968;2024-01-16T00:49:25;36.03;32.46;44.80;;
67324;Laerm;57667;51.438;5.968;2024-01-16T00:49:35;34.00;30.94;40.21;;
67324;Laerm;57667;51.438;5.968;2024-01-16T00:49:46;32.18;30.68;33.78;;
67324;Laerm;57667;51.438;5.968;2024-01-16T00:49:58;31.92;30.89;33.12;;
67324;Laerm;57667;51.438;5.968;2024-01-16T00:50:10;31.89;30.54;33.41;;
67324;Laerm;57667;51.438;5.968;2024-01-16T00:50:20;32.62;31.37;35.09;;
67324;Laerm;57667;51.438;5.968;2024-01-16T00:50:30;35.58;33.26;39.43;;
67324;Laerm;57667;51.438;5.968;2024-01-16T00:50:41;38.27;34.13;53.07;;
67324;Laerm;57667;51.438;5.968;2024-01-16T00:50:52;40.63;32.56;53.88;;
67324;Laerm;57667;51.438;5.968;2024-01-16T00:51:02;34.20;32.19;40.67;;
67324;Laerm;57667;51.438;5.968;2024-01-16T00:51:12;35.36;32.86;39.03;;
67324;Laerm;57667;51.438;5.968;2024-01-16T00:51:23;39.38;34.02;53.07;;
67324;Laerm;57667;51.438;5.968;2024-01-16T00:51:33;38.00;33.28;45.80;;
67324;Laerm;57667;51.438;5.968;2024-01-16T00:51:43;33.82;32.38;35.98;;
67324;Laerm;57667;51.438;5.968;2024-01-16T00:51:54;40.50;32.60;51.78;;
67324;Laerm;57667;51.438;5.968;2024-01-16T00:52:04;40.76;33.56;49.63;;
67324;Laerm;57667;51.438;5.968;2024-01-16T00:52:14;39.08;34.23;49.50;;
67324;Laerm;57667;51.438;5.968;2024-01-16T00:52:25;34.73;32.54;42.77;;
67324;Laerm;57667;51.438;5.968;2024-01-16T00:52:35;36.26;32.95;38.60;;
67324;Laerm;57667;51.438;5.968;2024-01-16T00:52:45;36.57;33.96;42.15;;
67324;Laerm;57667;51.438;5.968;2024-01-16T00:52:56;33.99;31.87;35.45;;
67324;Laerm;57667;51.438;5.968;2024-01-16T00:53:06;33.24;31.58;41.29;;
67324;Laerm;57667;51.438;5.968;2024-01-16T00:53:16;35.89;32.53;43.30;;
67324;Laerm;57667;51.438;5.968;2024-01-16T00:53:27;33.75;31.51;39.91;;
67324;Laerm;57667;51.438;5.968;2024-01-16T00:53:40;33.37;31.63;36.53;;
67324;Laerm;57667;51.438;5.968;2024-01-16T00:53:51;33.94;31.81;39.65;;
67324;Laerm;57667;51.438;5.968;2024-01-16T00:54:01;36.99;31.85;46.09;;
67324;Laerm;57667;51.438;5.968;2024-01-16T00:54:11;33.16;31.55;37.66;;
67324;Laerm;57667;51.438;5.968;2024-01-16T00:54:22;33.15;31.92;34.54;;
67324;Laerm;57667;51.438;5.968;2024-01-16T00:54:32;32.84;31.05;37.57;;
67324;Laerm;57667;51.438;5.968;2024-01-16T00:54:43;32.47;31.06;36.01;;
67324;Laerm;57667;51.438;5.968;2024-01-16T00:54:53;32.42;31.00;33.81;;
67324;Laerm;57667;51.438;5.968;2024-01-16T00:55:04;34.72;31.98;43.72;;
67324;Laerm;57667;51.438;5.968;2024-01-16T00:55:14;36.40;33.60;45.87;;
67324;Laerm;57667;51.438;5.968;2024-01-16T00:55:25;37.30;33.00;47.33;;
67324;Laerm;57667;51.438;5.968;2024-01-16T00:55:35;35.39;32.54;42.06;;
67324;Laerm;57667;51.438;5.968;2024-01-16T00:55:45;43.60;34.27;57.19;;
67324;Laerm;57667;51.438;5.968;2024-01-16T00:55:55;39.18;33.65;50.04;;
67324;Laerm;57667;51.438;5.968;2024-01-16T00:56:06;41.77;33.23;53.89;;
67324;Laerm;57667;51.438;5.968;2024-01-16T00:56:16;39.97;34.77;48.45;;
67324;Laerm;57667;51.438;5.968;2024-01-16T00:56:26;37.98;33.30;46.71;;
67324;Laerm;57667;51.438;5.968;2024-01-16T00:56:37;36.18;31.43;46.26;;
67324;Laerm;57667;51.438;5.968;2024-01-16T00:56:48;35.02;31.24;45.81;;
67324;Laerm;57667;51.438;5.968;2024-01-16T00:56:58;33.56;31.03;39.92;;
67324;Laerm;57667;51.438;5.968;2024-01-16T00:57:09;32.67;30.37;40.59;;
67324;Laerm;57667;51.438;5.968;2024-01-16T00:57:20;37.33;31.09;47.26;;
67324;Laerm;57667;51.438;5.968;2024-01-16T00:57:30;32.99;30.95;40.85;;
67324;Laerm;57667;51.438;5.968;2024-01-16T00:57:40;32.88;30.75;41.55;;
67324;Laerm;57667;51.438;5.968;2024-01-16T00:57:51;34.95;32.19;42.11;;
67324;Laerm;57667;51.438;5.968;2024-01-16T00:58:01;39.04;34.81;48.25;;
67324;Laerm;57667;51.438;5.968;2024-01-16T00:58:12;38.67;34.60;51.78;;
67324;Laerm;57667;51.438;5.968;2024-01-16T00:58:23;46.88;35.72;57.62;;
67324;Laerm;57667;51.438;5.968;2024-01-16T00:58:33;42.79;37.60;51.94;;
67324;Laerm;57667;51.438;5.968;2024-01-16T00:58:43;36.71;34.07;44.15;;
67324;Laerm;57667;51.438;5.968;2024-01-16T00:58:54;36.19;32.15;44.20;;
67324;Laerm;57667;51.438;5.968;2024-01-16T00:59:04;35.24;31.92;42.31;;
67324;Laerm;57667;51.438;5.968;2024-01-16T00:59:14;38.70;34.97;47.79;;
67324;Laerm;57667;51.438;5.968;2024-01-16T00:59:25;40.11;35.29;47.39;;